sensor_id;sensor_type;location;lat;lon;timestamp;P1;durP1;ratioP1;P2;durP2;ratioP2
25637;SDS011;13496;51.040;13.680;2022-09-06T00:01:58;10.27;;;9.38;;
25637;SDS011;13496;51.040;13.680;2022-09-06T00:06:59;9.73;;;8.85;;
25637;SDS011;13496;51.040;13.680;2022-09-06T00:12:01;10.30;;;9.40;;
25637;SDS011;13496;51.040;13.680;2022-09-06T00:17:03;10.48;;;9.57;;
25637;SDS011;13496;51.040;13.680;2022-09-06T00:22:05;10.43;;;9.48;;
25637;SDS011;13496;51.040;13.680;2022-09-06T00:27:07;9.90;;;9.10;;
25637;SDS011;13496;51.040;13.680;2022-09-06T00:32:09;9.88;;;9.07;;
25637;SDS011;13496;51.040;13.680;2022-09-06T00:37:10;10.02;;;9.18;;
25637;SDS011;13496;51.040;13.680;2022-09-06T00:42:12;9.35;;;8.55;;
25637;SDS011;13496;51.040;13.680;2022-09-06T00:47:14;9.25;;;8.48;;
25637;SDS011;13496;51.040;13.680;2022-09-06T00:52:16;8.88;;;8.07;;
25637;SDS011;13496;51.040;13.680;2022-09-06T00:57:20;9.63;;;8.73;;
25637;SDS011;13496;51.040;13.680;2022-09-06T01:02:21;9.13;;;8.32;;
25637;SDS011;13496;51.040;13.680;2022-09-06T01:18:10;8.95;;;8.15;;
25637;SDS011;13496;51.040;13.680;2022-09-06T01:28:58;8.55;;;7.65;;
25637;SDS011;13496;51.040;13.680;2022-09-06T01:39:09;7.97;;;7.38;;
25637;SDS011;13496;51.040;13.680;2022-09-06T01:44:22;8.68;;;7.90;;
25637;SDS011;13496;51.040;13.680;2022-09-06T01:49:43;9.10;;;8.40;;
25637;SDS011;13496;51.040;13.680;2022-09-06T01:55:12;8.82;;;8.07;;
25637;SDS011;13496;51.040;13.680;2022-09-06T02:00:22;8.40;;;7.57;;
25637;SDS011;13496;51.040;13.680;2022-09-06T02:05:33;8.23;;;7.38;;
25637;SDS011;13496;51.040;13.680;2022-09-06T02:10:50;8.32;;;7.55;;
25637;SDS011;13496;51.040;13.680;2022-09-06T02:16:00;8.30;;;7.55;;
25637;SDS011;13496;51.040;13.680;2022-09-06T02:21:03;9.13;;;7.72;;
25637;SDS011;13496;51.040;13.680;2022-09-06T02:26:09;7.68;;;7.07;;
25637;SDS011;13496;51.040;13.680;2022-09-06T02:31:19;8.10;;;7.50;;
25637;SDS011;13496;51.040;13.680;2022-09-06T02:36:24;7.70;;;7.10;;
25637;SDS011;13496;51.040;13.680;2022-09-06T02:41:26;7.53;;;6.85;;
25637;SDS011;13496;51.040;13.680;2022-09-06T02:46:29;8.05;;;7.30;;
25637;SDS011;13496;51.040;13.680;2022-09-06T02:51:35;7.45;;;6.85;;
25637;SDS011;13496;51.040;13.680;2022-09-06T02:56:38;7.53;;;6.90;;
25637;SDS011;13496;51.040;13.680;2022-09-06T03:01:40;8.23;;;7.53;;
25637;SDS011;13496;51.040;13.680;2022-09-06T03:06:41;7.07;;;6.47;;
25637;SDS011;13496;51.040;13.680;2022-09-06T03:11:43;7.65;;;7.05;;
25637;SDS011;13496;51.040;13.680;2022-09-06T03:16:45;7.28;;;6.70;;
25637;SDS011;13496;51.040;13.680;2022-09-06T03:21:46;8.27;;;7.43;;
25637;SDS011;13496;51.040;13.680;2022-09-06T03:26:49;8.23;;;7.43;;
25637;SDS011;13496;51.040;13.680;2022-09-06T03:31:52;8.13;;;7.28;;
25637;SDS011;13496;51.040;13.680;2022-09-06T03:36:53;7.15;;;6.55;;
25637;SDS011;13496;51.040;13.680;2022-09-06T03:41:55;7.93;;;7.22;;
25637;SDS011;13496;51.040;13.680;2022-09-06T03:46:57;7.55;;;6.90;;
25637;SDS011;13496;51.040;13.680;2022-09-06T03:51:59;7.38;;;6.68;;
25637;SDS011;13496;51.040;13.680;2022-09-06T03:57:00;6.93;;;6.32;;
25637;SDS011;13496;51.040;13.680;2022-09-06T04:02:02;8.00;;;7.20;;
25637;SDS011;13496;51.040;13.680;2022-09-06T04:07:04;7.65;;;6.95;;
25637;SDS011;13496;51.040;13.680;2022-09-06T04:12:06;7.07;;;6.38;;
25637;SDS011;13496;51.040;13.680;2022-09-06T04:17:08;6.97;;;6.32;;
25637;SDS011;13496;51.040;13.680;2022-09-06T04:22:09;7.47;;;6.78;;
25637;SDS011;13496;51.040;13.680;2022-09-06T04:27:11;7.78;;;7.00;;
25637;SDS011;13496;51.040;13.680;2022-09-06T04:32:13;8.25;;;7.35;;
25637;SDS011;13496;51.040;13.680;2022-09-06T04:37:14;8.85;;;7.72;;
25637;SDS011;13496;51.040;13.680;2022-09-06T04:42:20;9.68;;;8.20;;
25637;SDS011;13496;51.040;13.680;2022-09-06T04:47:21;8.13;;;7.43;;
25637;SDS011;13496;51.040;13.680;2022-09-06T04:52:23;8.25;;;7.43;;
25637;SDS011;13496;51.040;13.680;2022-09-06T04:57:25;8.18;;;6.90;;
25637;SDS011;13496;51.040;13.680;2022-09-06T05:02:27;8.00;;;7.30;;
25637;SDS011;13496;51.040;13.680;2022-09-06T05:07:28;8.25;;;7.50;;
25637;SDS011;13496;51.040;13.680;2022-09-06T05:12:30;7.10;;;6.40;;
25637;SDS011;13496;51.040;13.680;2022-09-06T05:17:32;7.18;;;6.47;;
25637;SDS011;13496;51.040;13.680;2022-09-06T05:22:33;7.65;;;6.68;;
25637;SDS011;13496;51.040;13.680;2022-09-06T05:27:35;7.72;;;7.03;;
25637;SDS011;13496;51.040;13.680;2022-09-06T05:32:37;7.60;;;7.00;;
25637;SDS011;13496;51.040;13.680;2022-09-06T05:37:38;8.20;;;7.18;;
25637;SDS011;13496;51.040;13.680;2022-09-06T05:42:40;7.15;;;6.55;;
25637;SDS011;13496;51.040;13.680;2022-09-06T05:47:42;8.15;;;7.40;;
25637;SDS011;13496;51.040;13.680;2022-09-06T05:52:44;8.20;;;7.50;;
25637;SDS011;13496;51.040;13.680;2022-09-06T05:57:45;7.70;;;7.10;;
25637;SDS011;13496;51.040;13.680;2022-09-06T06:02:47;7.43;;;6.57;;
25637;SDS011;13496;51.040;13.680;2022-09-06T06:07:49;7.68;;;6.97;;
25637;SDS011;13496;51.040;13.680;2022-09-06T06:12:51;7.70;;;7.00;;
25637;SDS011;13496;51.040;13.680;2022-09-06T06:17:53;7.30;;;6.70;;
25637;SDS011;13496;51.040;13.680;2022-09-06T06:22:54;7.97;;;7.18;;
25637;SDS011;13496;51.040;13.680;2022-09-06T06:27:56;7.85;;;7.07;;
25637;SDS011;13496;51.040;13.680;2022-09-06T06:32:58;7.30;;;6.70;;
25637;SDS011;13496;51.040;13.680;2022-09-06T06:38:00;7.53;;;6.93;;
25637;SDS011;13496;51.040;13.680;2022-09-06T06:43:02;7.35;;;6.68;;
25637;SDS011;13496;51.040;13.680;2022-09-06T06:48:04;7.25;;;6.55;;
25637;SDS011;13496;51.040;13.680;2022-09-06T06:53:06;8.48;;;7.75;;
25637;SDS011;13496;51.040;13.680;2022-09-06T06:58:08;9.27;;;6.75;;
25637;SDS011;13496;51.040;13.680;2022-09-06T07:03:10;7.30;;;6.70;;
25637;SDS011;13496;51.040;13.680;2022-09-06T07:08:12;7.32;;;6.63;;
25637;SDS011;13496;51.040;13.680;2022-09-06T07:13:14;7.50;;;6.72;;
25637;SDS011;13496;51.040;13.680;2022-09-06T07:18:16;8.95;;;7.05;;
25637;SDS011;13496;51.040;13.680;2022-09-06T07:23:18;7.43;;;6.75;;
25637;SDS011;13496;51.040;13.680;2022-09-06T07:28:20;7.28;;;6.57;;
25637;SDS011;13496;51.040;13.680;2022-09-06T07:33:21;6.88;;;6.28;;
25637;SDS011;13496;51.040;13.680;2022-09-06T07:38:24;7.50;;;6.80;;
25637;SDS011;13496;51.040;13.680;2022-09-06T07:43:26;9.32;;;6.40;;
25637;SDS011;13496;51.040;13.680;2022-09-06T07:48:28;8.40;;;6.80;;
25637;SDS011;13496;51.040;13.680;2022-09-06T07:53:31;7.65;;;6.82;;
25637;SDS011;13496;51.040;13.680;2022-09-06T07:58:35;7.00;;;6.28;;
25637;SDS011;13496;51.040;13.680;2022-09-06T08:03:36;7.85;;;6.95;;
25637;SDS011;13496;51.040;13.680;2022-09-06T08:08:38;9.38;;;6.30;;
25637;SDS011;13496;51.040;13.680;2022-09-06T08:13:40;7.65;;;6.28;;
25637;SDS011;13496;51.040;13.680;2022-09-06T08:18:42;6.97;;;6.22;;
25637;SDS011;13496;51.040;13.680;2022-09-06T08:23:45;7.00;;;6.30;;
25637;SDS011;13496;51.040;13.680;2022-09-06T08:28:59;7.65;;;6.57;;
25637;SDS011;13496;51.040;13.680;2022-09-06T08:34:06;6.38;;;5.88;;
25637;SDS011;13496;51.040;13.680;2022-09-06T08:39:08;9.63;;;6.68;;
25637;SDS011;13496;51.040;13.680;2022-09-06T08:44:18;5.97;;;5.45;;
25637;SDS011;13496;51.040;13.680;2022-09-06T08:49:21;7.70;;;6.93;;
25637;SDS011;13496;51.040;13.680;2022-09-06T08:54:28;6.70;;;6.10;;
25637;SDS011;13496;51.040;13.680;2022-09-06T08:59:40;6.40;;;5.82;;
25637;SDS011;13496;51.040;13.680;2022-09-06T09:04:44;6.70;;;6.03;;
25637;SDS011;13496;51.040;13.680;2022-09-06T09:09:49;10.80;;;6.43;;
25637;SDS011;13496;51.040;13.680;2022-09-06T09:14:54;6.95;;;6.40;;
25637;SDS011;13496;51.040;13.680;2022-09-06T09:20:02;6.63;;;6.03;;
25637;SDS011;13496;51.040;13.680;2022-09-06T09:25:04;6.65;;;6.07;;
25637;SDS011;13496;51.040;13.680;2022-09-06T09:30:08;6.72;;;5.88;;
25637;SDS011;13496;51.040;13.680;2022-09-06T09:35:18;8.18;;;6.35;;
25637;SDS011;13496;51.040;13.680;2022-09-06T09:50:32;6.57;;;5.97;;
25637;SDS011;13496;51.040;13.680;2022-09-06T09:55:35;7.53;;;6.43;;
25637;SDS011;13496;51.040;13.680;2022-09-06T10:00:38;8.52;;;6.93;;
25637;SDS011;13496;51.040;13.680;2022-09-06T10:05:41;6.30;;;5.80;;
25637;SDS011;13496;51.040;13.680;2022-09-06T10:10:45;7.22;;;6.22;;
25637;SDS011;13496;51.040;13.680;2022-09-06T10:15:48;6.72;;;6.13;;
25637;SDS011;13496;51.040;13.680;2022-09-06T10:20:56;7.60;;;5.90;;
25637;SDS011;13496;51.040;13.680;2022-09-06T10:26:05;6.97;;;6.38;;
25637;SDS011;13496;51.040;13.680;2022-09-06T10:31:54;7.13;;;6.40;;
25637;SDS011;13496;51.040;13.680;2022-09-06T10:36:44;6.28;;;5.70;;
25637;SDS011;13496;51.040;13.680;2022-09-06T10:47:31;7.53;;;6.20;;
25637;SDS011;13496;51.040;13.680;2022-09-06T10:52:46;6.30;;;5.70;;
25637;SDS011;13496;51.040;13.680;2022-09-06T10:57:56;8.80;;;6.18;;
25637;SDS011;13496;51.040;13.680;2022-09-06T11:03:07;6.95;;;5.70;;
25637;SDS011;13496;51.040;13.680;2022-09-06T11:13:34;6.20;;;5.30;;
25637;SDS011;13496;51.040;13.680;2022-09-06T11:18:40;10.75;;;5.88;;
25637;SDS011;13496;51.040;13.680;2022-09-06T11:29:20;6.97;;;5.40;;
25637;SDS011;13496;51.040;13.680;2022-09-06T11:34:25;6.20;;;5.57;;
25637;SDS011;13496;51.040;13.680;2022-09-06T11:39:33;6.93;;;5.70;;
25637;SDS011;13496;51.040;13.680;2022-09-06T11:49:49;6.47;;;5.75;;
25637;SDS011;13496;51.040;13.680;2022-09-06T11:54:51;6.10;;;5.43;;
25637;SDS011;13496;51.040;13.680;2022-09-06T12:00:00;5.68;;;5.18;;
25637;SDS011;13496;51.040;13.680;2022-09-06T12:05:08;6.25;;;5.75;;
25637;SDS011;13496;51.040;13.680;2022-09-06T12:15:42;6.43;;;5.72;;
25637;SDS011;13496;51.040;13.680;2022-09-06T12:25:53;6.00;;;5.50;;
25637;SDS011;13496;51.040;13.680;2022-09-06T12:30:55;6.03;;;5.45;;
25637;SDS011;13496;51.040;13.680;2022-09-06T12:41:14;5.75;;;5.30;;
25637;SDS011;13496;51.040;13.680;2022-09-06T12:46:16;5.75;;;5.20;;
25637;SDS011;13496;51.040;13.680;2022-09-06T12:51:18;5.95;;;5.43;;
25637;SDS011;13496;51.040;13.680;2022-09-06T12:56:22;5.50;;;5.00;;
25637;SDS011;13496;51.040;13.680;2022-09-06T13:01:26;4.85;;;4.45;;
25637;SDS011;13496;51.040;13.680;2022-09-06T13:06:34;4.82;;;4.53;;
25637;SDS011;13496;51.040;13.680;2022-09-06T13:11:44;5.30;;;4.90;;
25637;SDS011;13496;51.040;13.680;2022-09-06T13:16:49;6.05;;;4.82;;
25637;SDS011;13496;51.040;13.680;2022-09-06T13:21:53;6.28;;;5.00;;
25637;SDS011;13496;51.040;13.680;2022-09-06T13:26:54;5.50;;;4.50;;
25637;SDS011;13496;51.040;13.680;2022-09-06T13:31:57;5.28;;;3.42;;
25637;SDS011;13496;51.040;13.680;2022-09-06T13:37:03;5.35;;;3.33;;
25637;SDS011;13496;51.040;13.680;2022-09-06T13:42:08;2.80;;;2.60;;
25637;SDS011;13496;51.040;13.680;2022-09-06T13:47:11;6.43;;;3.45;;
25637;SDS011;13496;51.040;13.680;2022-09-06T13:52:13;5.35;;;4.47;;
25637;SDS011;13496;51.040;13.680;2022-09-06T13:57:15;8.27;;;4.40;;
25637;SDS011;13496;51.040;13.680;2022-09-06T14:02:17;12.57;;;4.60;;
25637;SDS011;13496;51.040;13.680;2022-09-06T14:07:21;6.15;;;4.45;;
25637;SDS011;13496;51.040;13.680;2022-09-06T14:12:23;6.38;;;4.28;;
25637;SDS011;13496;51.040;13.680;2022-09-06T14:17:25;6.13;;;4.55;;
25637;SDS011;13496;51.040;13.680;2022-09-06T14:22:27;5.43;;;4.32;;
25637;SDS011;13496;51.040;13.680;2022-09-06T14:27:29;8.00;;;4.05;;
25637;SDS011;13496;51.040;13.680;2022-09-06T14:32:30;4.30;;;3.90;;
25637;SDS011;13496;51.040;13.680;2022-09-06T14:37:32;5.88;;;4.13;;
25637;SDS011;13496;51.040;13.680;2022-09-06T14:42:34;4.60;;;3.90;;
25637;SDS011;13496;51.040;13.680;2022-09-06T14:47:36;4.38;;;3.97;;
25637;SDS011;13496;51.040;13.680;2022-09-06T14:52:38;4.25;;;3.85;;
25637;SDS011;13496;51.040;13.680;2022-09-06T14:57:40;4.40;;;4.00;;
25637;SDS011;13496;51.040;13.680;2022-09-06T15:02:42;4.43;;;3.50;;
25637;SDS011;13496;51.040;13.680;2022-09-06T15:07:44;4.40;;;4.00;;
25637;SDS011;13496;51.040;13.680;2022-09-06T15:12:45;3.53;;;3.22;;
25637;SDS011;13496;51.040;13.680;2022-09-06T15:17:47;5.97;;;4.05;;
25637;SDS011;13496;51.040;13.680;2022-09-06T15:22:49;5.88;;;3.58;;
25637;SDS011;13496;51.040;13.680;2022-09-06T15:27:51;4.65;;;3.65;;
25637;SDS011;13496;51.040;13.680;2022-09-06T15:32:53;4.43;;;4.00;;
25637;SDS011;13496;51.040;13.680;2022-09-06T15:37:54;4.57;;;4.13;;
25637;SDS011;13496;51.040;13.680;2022-09-06T15:42:56;5.68;;;4.60;;
25637;SDS011;13496;51.040;13.680;2022-09-06T15:47:58;5.60;;;4.22;;
25637;SDS011;13496;51.040;13.680;2022-09-06T15:52:59;4.60;;;4.07;;
25637;SDS011;13496;51.040;13.680;2022-09-06T15:58:01;4.57;;;4.18;;
25637;SDS011;13496;51.040;13.680;2022-09-06T16:03:03;6.90;;;4.10;;
25637;SDS011;13496;51.040;13.680;2022-09-06T16:08:04;5.63;;;4.25;;
25637;SDS011;13496;51.040;13.680;2022-09-06T16:13:06;4.68;;;4.18;;
25637;SDS011;13496;51.040;13.680;2022-09-06T16:18:08;5.43;;;4.70;;
25637;SDS011;13496;51.040;13.680;2022-09-06T16:23:10;5.13;;;4.40;;
25637;SDS011;13496;51.040;13.680;2022-09-06T16:28:11;5.20;;;4.50;;
25637;SDS011;13496;51.040;13.680;2022-09-06T16:33:13;5.82;;;4.85;;
25637;SDS011;13496;51.040;13.680;2022-09-06T16:38:15;6.80;;;5.30;;
25637;SDS011;13496;51.040;13.680;2022-09-06T16:43:17;5.32;;;4.60;;
25637;SDS011;13496;51.040;13.680;2022-09-06T16:48:18;4.80;;;4.30;;
25637;SDS011;13496;51.040;13.680;2022-09-06T16:53:20;5.07;;;4.43;;
25637;SDS011;13496;51.040;13.680;2022-09-06T16:58:23;6.45;;;4.82;;
25637;SDS011;13496;51.040;13.680;2022-09-06T17:03:25;5.88;;;4.80;;
25637;SDS011;13496;51.040;13.680;2022-09-06T17:08:29;4.75;;;4.35;;
25637;SDS011;13496;51.040;13.680;2022-09-06T17:13:32;5.60;;;5.13;;
25637;SDS011;13496;51.040;13.680;2022-09-06T17:18:34;5.82;;;5.22;;
25637;SDS011;13496;51.040;13.680;2022-09-06T17:23:37;5.97;;;4.85;;
25637;SDS011;13496;51.040;13.680;2022-09-06T17:28:39;4.70;;;4.30;;
25637;SDS011;13496;51.040;13.680;2022-09-06T17:33:41;5.32;;;4.75;;
25637;SDS011;13496;51.040;13.680;2022-09-06T17:38:46;6.22;;;4.53;;
25637;SDS011;13496;51.040;13.680;2022-09-06T17:43:48;5.30;;;4.80;;
25637;SDS011;13496;51.040;13.680;2022-09-06T17:48:50;5.13;;;4.63;;
25637;SDS011;13496;51.040;13.680;2022-09-06T17:53:52;5.70;;;5.20;;
25637;SDS011;13496;51.040;13.680;2022-09-06T17:58:58;4.82;;;4.43;;
25637;SDS011;13496;51.040;13.680;2022-09-06T18:04:02;5.40;;;4.90;;
25637;SDS011;13496;51.040;13.680;2022-09-06T18:09:07;5.65;;;5.10;;
25637;SDS011;13496;51.040;13.680;2022-09-06T18:14:12;4.82;;;4.43;;
25637;SDS011;13496;51.040;13.680;2022-09-06T18:19:18;5.15;;;4.72;;
25637;SDS011;13496;51.040;13.680;2022-09-06T18:24:22;5.20;;;4.70;;
25637;SDS011;13496;51.040;13.680;2022-09-06T18:29:24;5.70;;;5.20;;
25637;SDS011;13496;51.040;13.680;2022-09-06T18:34:25;5.47;;;4.97;;
25637;SDS011;13496;51.040;13.680;2022-09-06T18:39:28;5.53;;;4.97;;
25637;SDS011;13496;51.040;13.680;2022-09-06T18:44:30;7.75;;;5.47;;
25637;SDS011;13496;51.040;13.680;2022-09-06T18:49:33;5.97;;;5.45;;
25637;SDS011;13496;51.040;13.680;2022-09-06T18:54:35;5.60;;;5.10;;
25637;SDS011;13496;51.040;13.680;2022-09-06T18:59:37;5.25;;;4.85;;
25637;SDS011;13496;51.040;13.680;2022-09-06T19:04:38;5.00;;;4.60;;
25637;SDS011;13496;51.040;13.680;2022-09-06T19:09:40;5.65;;;4.90;;
25637;SDS011;13496;51.040;13.680;2022-09-06T19:14:42;9.88;;;7.03;;
25637;SDS011;13496;51.040;13.680;2022-09-06T19:19:44;10.75;;;8.40;;
25637;SDS011;13496;51.040;13.680;2022-09-06T19:24:45;12.10;;;8.60;;
25637;SDS011;13496;51.040;13.680;2022-09-06T19:29:47;11.65;;;9.10;;
25637;SDS011;13496;51.040;13.680;2022-09-06T19:34:49;179.13;;;23.45;;
25637;SDS011;13496;51.040;13.680;2022-09-06T19:39:51;307.25;;;31.15;;
25637;SDS011;13496;51.040;13.680;2022-09-06T19:45:11;152.77;;;21.42;;
25637;SDS011;13496;51.040;13.680;2022-09-06T19:50:13;111.55;;;17.02;;
25637;SDS011;13496;51.040;13.680;2022-09-06T19:55:15;81.93;;;15.40;;
25637;SDS011;13496;51.040;13.680;2022-09-06T20:00:17;62.03;;;12.88;;
25637;SDS011;13496;51.040;13.680;2022-09-06T20:05:18;51.65;;;11.90;;
25637;SDS011;13496;51.040;13.680;2022-09-06T20:10:20;40.53;;;10.25;;
25637;SDS011;13496;51.040;13.680;2022-09-06T20:15:22;31.17;;;9.85;;
25637;SDS011;13496;51.040;13.680;2022-09-06T20:20:24;26.77;;;9.20;;
25637;SDS011;13496;51.040;13.680;2022-09-06T20:25:25;26.33;;;8.60;;
25637;SDS011;13496;51.040;13.680;2022-09-06T20:30:27;23.30;;;8.25;;
25637;SDS011;13496;51.040;13.680;2022-09-06T20:35:30;13.52;;;7.80;;
25637;SDS011;13496;51.040;13.680;2022-09-06T20:40:32;14.82;;;7.88;;
25637;SDS011;13496;51.040;13.680;2022-09-06T20:45:33;15.15;;;7.43;;
25637;SDS011;13496;51.040;13.680;2022-09-06T20:50:35;12.05;;;6.70;;
25637;SDS011;13496;51.040;13.680;2022-09-06T20:55:37;10.90;;;6.97;;
25637;SDS011;13496;51.040;13.680;2022-09-06T21:00:39;9.10;;;7.53;;
25637;SDS011;13496;51.040;13.680;2022-09-06T21:05:41;8.10;;;6.75;;
25637;SDS011;13496;51.040;13.680;2022-09-06T21:10:43;11.05;;;7.00;;
25637;SDS011;13496;51.040;13.680;2022-09-06T21:15:45;7.22;;;6.57;;
25637;SDS011;13496;51.040;13.680;2022-09-06T21:20:53;7.15;;;6.47;;
25637;SDS011;13496;51.040;13.680;2022-09-06T21:26:00;7.75;;;7.10;;
25637;SDS011;13496;51.040;13.680;2022-09-06T21:31:14;7.50;;;6.90;;
25637;SDS011;13496;51.040;13.680;2022-09-06T21:36:29;6.88;;;6.28;;
25637;SDS011;13496;51.040;13.680;2022-09-06T21:41:32;7.03;;;6.43;;
25637;SDS011;13496;51.040;13.680;2022-09-06T21:46:35;7.28;;;6.68;;
25637;SDS011;13496;51.040;13.680;2022-09-06T21:51:38;7.95;;;7.18;;
25637;SDS011;13496;51.040;13.680;2022-09-06T21:56:40;7.55;;;6.95;;
25637;SDS011;13496;51.040;13.680;2022-09-06T22:01:42;7.70;;;7.00;;
25637;SDS011;13496;51.040;13.680;2022-09-06T22:06:44;7.90;;;7.10;;
25637;SDS011;13496;51.040;13.680;2022-09-06T22:11:47;8.00;;;7.30;;
25637;SDS011;13496;51.040;13.680;2022-09-06T22:16:49;7.45;;;6.85;;
25637;SDS011;13496;51.040;13.680;2022-09-06T22:21:52;7.63;;;6.90;;
25637;SDS011;13496;51.040;13.680;2022-09-06T22:26:54;7.53;;;6.93;;
25637;SDS011;13496;51.040;13.680;2022-09-06T22:31:56;7.30;;;6.60;;
25637;SDS011;13496;51.040;13.680;2022-09-06T22:36:58;7.72;;;7.13;;
25637;SDS011;13496;51.040;13.680;2022-09-06T22:42:00;7.40;;;6.80;;
25637;SDS011;13496;51.040;13.680;2022-09-06T22:47:02;7.45;;;6.85;;
25637;SDS011;13496;51.040;13.680;2022-09-06T22:52:04;7.20;;;6.70;;
25637;SDS011;13496;51.040;13.680;2022-09-06T22:57:06;6.80;;;6.30;;
25637;SDS011;13496;51.040;13.680;2022-09-06T23:02:07;7.22;;;6.63;;
25637;SDS011;13496;51.040;13.680;2022-09-06T23:07:09;6.85;;;6.32;;
25637;SDS011;13496;51.040;13.680;2022-09-06T23:12:11;6.63;;;6.10;;
25637;SDS011;13496;51.040;13.680;2022-09-06T23:17:13;7.10;;;6.50;;
25637;SDS011;13496;51.040;13.680;2022-09-06T23:22:15;6.65;;;6.15;;
25637;SDS011;13496;51.040;13.680;2022-09-06T23:27:16;6.35;;;5.85;;
25637;SDS011;13496;51.040;13.680;2022-09-06T23:32:18;6.45;;;5.95;;
25637;SDS011;13496;51.040;13.680;2022-09-06T23:37:20;6.70;;;6.20;;
25637;SDS011;13496;51.040;13.680;2022-09-06T23:42:22;6.63;;;6.13;;
25637;SDS011;13496;51.040;13.680;2022-09-06T23:47:24;6.72;;;6.22;;
25637;SDS011;13496;51.040;13.680;2022-09-06T23:52:26;6.20;;;5.80;;
25637;SDS011;13496;51.040;13.680;2022-09-06T23:57:28;6.50;;;6.00;;
